sensor_id;sensor_type;location;lat;lon;timestamp;P1;durP1;ratioP1;P2;durP2;ratioP2
70549;SDS011;58101;48.658;2.328;2023-06-10T00:02:21;10.70;;;4.28;;
70549;SDS011;58101;48.658;2.328;2023-06-10T00:04:47;8.60;;;4.10;;
70549;SDS011;58101;48.658;2.328;2023-06-10T00:07:24;7.88;;;4.00;;
70549;SDS011;58101;48.658;2.328;2023-06-10T00:09:50;9.63;;;4.30;;
70549;SDS011;58101;48.658;2.328;2023-06-10T00:12:16;8.63;;;4.30;;
70549;SDS011;58101;48.658;2.328;2023-06-10T00:14:42;7.95;;;3.85;;
70549;SDS011;58101;48.658;2.328;2023-06-10T00:17:08;9.45;;;4.20;;
70549;SDS011;58101;48.658;2.328;2023-06-10T00:19:34;8.40;;;3.92;;
70549;SDS011;58101;48.658;2.328;2023-06-10T00:22:01;9.77;;;4.05;;
70549;SDS011;58101;48.658;2.328;2023-06-10T00:24:28;7.93;;;4.03;;
70549;SDS011;58101;48.658;2.328;2023-06-10T00:26:54;8.60;;;4.10;;
70549;SDS011;58101;48.658;2.328;2023-06-10T00:29:20;10.85;;;4.30;;
70549;SDS011;58101;48.658;2.328;2023-06-10T00:31:45;7.88;;;4.13;;
70549;SDS011;58101;48.658;2.328;2023-06-10T00:36:37;9.07;;;3.92;;
70549;SDS011;58101;48.658;2.328;2023-06-10T00:39:03;9.10;;;4.03;;
70549;SDS011;58101;48.658;2.328;2023-06-10T00:41:32;9.73;;;4.20;;
70549;SDS011;58101;48.658;2.328;2023-06-10T00:43:59;8.07;;;4.03;;
70549;SDS011;58101;48.658;2.328;2023-06-10T00:46:24;8.50;;;4.07;;
70549;SDS011;58101;48.658;2.328;2023-06-10T00:48:51;9.38;;;4.40;;
70549;SDS011;58101;48.658;2.328;2023-06-10T00:51:26;9.15;;;4.30;;
70549;SDS011;58101;48.658;2.328;2023-06-10T00:53:59;7.53;;;3.92;;
70549;SDS011;58101;48.658;2.328;2023-06-10T00:56:25;7.78;;;3.88;;
70549;SDS011;58101;48.658;2.328;2023-06-10T00:59:00;10.50;;;4.45;;
70549;SDS011;58101;48.658;2.328;2023-06-10T01:01:25;8.48;;;4.20;;
70549;SDS011;58101;48.658;2.328;2023-06-10T01:03:51;9.02;;;4.30;;
70549;SDS011;58101;48.658;2.328;2023-06-10T01:12:25;9.73;;;4.50;;
70549;SDS011;58101;48.658;2.328;2023-06-10T01:15:01;9.20;;;4.20;;
70549;SDS011;58101;48.658;2.328;2023-06-10T01:17:33;9.73;;;4.53;;
70549;SDS011;58101;48.658;2.328;2023-06-10T01:20:01;13.77;;;4.40;;
70549;SDS011;58101;48.658;2.328;2023-06-10T01:22:36;9.77;;;4.75;;
70549;SDS011;58101;48.658;2.328;2023-06-10T01:25:10;10.23;;;4.22;;
70549;SDS011;58101;48.658;2.328;2023-06-10T01:27:37;8.80;;;4.28;;
70549;SDS011;58101;48.658;2.328;2023-06-10T01:30:16;7.82;;;3.95;;
70549;SDS011;58101;48.658;2.328;2023-06-10T01:32:46;8.77;;;4.05;;
70549;SDS011;58101;48.658;2.328;2023-06-10T01:35:15;8.80;;;4.03;;
70549;SDS011;58101;48.658;2.328;2023-06-10T01:37:57;8.27;;;3.78;;
70549;SDS011;58101;48.658;2.328;2023-06-10T01:40:25;9.68;;;4.28;;
70549;SDS011;58101;48.658;2.328;2023-06-10T01:42:51;8.20;;;4.07;;
70549;SDS011;58101;48.658;2.328;2023-06-10T01:48:40;9.57;;;4.30;;
70549;SDS011;58101;48.658;2.328;2023-06-10T01:51:07;8.80;;;4.60;;
70549;SDS011;58101;48.658;2.328;2023-06-10T01:53:33;11.00;;;4.38;;
70549;SDS011;58101;48.658;2.328;2023-06-10T01:55:58;8.68;;;4.30;;
70549;SDS011;58101;48.658;2.328;2023-06-10T01:58:25;8.90;;;3.95;;
70549;SDS011;58101;48.658;2.328;2023-06-10T02:00:50;8.77;;;4.18;;
70549;SDS011;58101;48.658;2.328;2023-06-10T02:03:16;8.93;;;4.38;;
70549;SDS011;58101;48.658;2.328;2023-06-10T02:05:42;8.40;;;4.25;;
70549;SDS011;58101;48.658;2.328;2023-06-10T02:08:08;8.90;;;4.22;;
70549;SDS011;58101;48.658;2.328;2023-06-10T02:10:33;8.57;;;4.30;;
70549;SDS011;58101;48.658;2.328;2023-06-10T02:12:59;9.55;;;4.50;;
70549;SDS011;58101;48.658;2.328;2023-06-10T02:15:25;10.20;;;4.22;;
70549;SDS011;58101;48.658;2.328;2023-06-10T02:17:51;8.93;;;4.47;;
70549;SDS011;58101;48.658;2.328;2023-06-10T02:20:17;9.15;;;4.15;;
70549;SDS011;58101;48.658;2.328;2023-06-10T02:22:43;10.05;;;4.57;;
70549;SDS011;58101;48.658;2.328;2023-06-10T02:25:09;9.68;;;4.82;;
70549;SDS011;58101;48.658;2.328;2023-06-10T02:27:35;9.95;;;4.70;;
70549;SDS011;58101;48.658;2.328;2023-06-10T02:30:00;10.25;;;4.53;;
70549;SDS011;58101;48.658;2.328;2023-06-10T02:32:26;9.93;;;4.45;;
70549;SDS011;58101;48.658;2.328;2023-06-10T02:34:52;8.80;;;4.20;;
70549;SDS011;58101;48.658;2.328;2023-06-10T02:37:18;8.77;;;4.28;;
70549;SDS011;58101;48.658;2.328;2023-06-10T02:39:47;9.48;;;4.55;;
70549;SDS011;58101;48.658;2.328;2023-06-10T02:42:12;10.38;;;4.75;;
70549;SDS011;58101;48.658;2.328;2023-06-10T02:44:40;8.82;;;4.50;;
70549;SDS011;58101;48.658;2.328;2023-06-10T02:47:06;9.50;;;4.50;;
70549;SDS011;58101;48.658;2.328;2023-06-10T02:49:32;13.02;;;4.43;;
70549;SDS011;58101;48.658;2.328;2023-06-10T02:51:57;8.98;;;4.55;;
70549;SDS011;58101;48.658;2.328;2023-06-10T02:54:23;11.18;;;4.55;;
70549;SDS011;58101;48.658;2.328;2023-06-10T02:56:50;8.68;;;4.38;;
70549;SDS011;58101;48.658;2.328;2023-06-10T02:59:19;9.73;;;4.68;;
70549;SDS011;58101;48.658;2.328;2023-06-10T03:01:46;8.82;;;4.30;;
70549;SDS011;58101;48.658;2.328;2023-06-10T03:06:58;10.73;;;4.65;;
70549;SDS011;58101;48.658;2.328;2023-06-10T03:09:25;8.48;;;4.50;;
70549;SDS011;58101;48.658;2.328;2023-06-10T03:11:51;12.25;;;4.63;;
70549;SDS011;58101;48.658;2.328;2023-06-10T03:14:19;11.77;;;4.70;;
70549;SDS011;58101;48.658;2.328;2023-06-10T03:16:48;9.70;;;4.47;;
70549;SDS011;58101;48.658;2.328;2023-06-10T03:19:14;10.13;;;4.40;;
70549;SDS011;58101;48.658;2.328;2023-06-10T03:21:49;10.63;;;4.72;;
70549;SDS011;58101;48.658;2.328;2023-06-10T03:24:35;9.65;;;4.60;;
70549;SDS011;58101;48.658;2.328;2023-06-10T03:27:01;9.07;;;4.57;;
70549;SDS011;58101;48.658;2.328;2023-06-10T03:29:29;12.18;;;4.82;;
70549;SDS011;58101;48.658;2.328;2023-06-10T03:32:03;10.18;;;4.70;;
70549;SDS011;58101;48.658;2.328;2023-06-10T03:34:39;9.75;;;4.47;;
70549;SDS011;58101;48.658;2.328;2023-06-10T03:37:05;10.52;;;4.40;;
70549;SDS011;58101;48.658;2.328;2023-06-10T03:39:34;10.60;;;4.50;;
70549;SDS011;58101;48.658;2.328;2023-06-10T03:41:59;8.70;;;4.35;;
70549;SDS011;58101;48.658;2.328;2023-06-10T03:44:25;10.13;;;4.60;;
70549;SDS011;58101;48.658;2.328;2023-06-10T03:46:51;8.98;;;4.65;;
70549;SDS011;58101;48.658;2.328;2023-06-10T03:49:17;9.13;;;4.43;;
70549;SDS011;58101;48.658;2.328;2023-06-10T03:51:45;10.02;;;4.63;;
70549;SDS011;58101;48.658;2.328;2023-06-10T03:57:33;10.95;;;4.35;;
70549;SDS011;58101;48.658;2.328;2023-06-10T03:59:58;9.98;;;4.53;;
70549;SDS011;58101;48.658;2.328;2023-06-10T04:02:24;8.48;;;4.05;;
70549;SDS011;58101;48.658;2.328;2023-06-10T04:04:50;10.57;;;4.32;;
70549;SDS011;58101;48.658;2.328;2023-06-10T04:07:16;11.23;;;4.15;;
70549;SDS011;58101;48.658;2.328;2023-06-10T04:09:43;8.38;;;4.18;;
70549;SDS011;58101;48.658;2.328;2023-06-10T04:12:09;8.35;;;4.07;;
70549;SDS011;58101;48.658;2.328;2023-06-10T04:14:35;9.90;;;4.40;;
70549;SDS011;58101;48.658;2.328;2023-06-10T04:17:02;9.13;;;4.10;;
70549;SDS011;58101;48.658;2.328;2023-06-10T04:19:32;9.40;;;4.28;;
70549;SDS011;58101;48.658;2.328;2023-06-10T04:21:57;10.65;;;4.40;;
70549;SDS011;58101;48.658;2.328;2023-06-10T04:24:32;9.40;;;4.47;;
70549;SDS011;58101;48.658;2.328;2023-06-10T04:27:03;9.95;;;4.20;;
70549;SDS011;58101;48.658;2.328;2023-06-10T04:29:44;8.27;;;4.15;;
70549;SDS011;58101;48.658;2.328;2023-06-10T04:32:10;8.75;;;3.97;;
70549;SDS011;58101;48.658;2.328;2023-06-10T04:34:36;8.63;;;4.03;;
70549;SDS011;58101;48.658;2.328;2023-06-10T04:37:05;11.13;;;4.50;;
70549;SDS011;58101;48.658;2.328;2023-06-10T04:39:31;10.00;;;4.22;;
70549;SDS011;58101;48.658;2.328;2023-06-10T04:41:57;8.40;;;4.00;;
70549;SDS011;58101;48.658;2.328;2023-06-10T04:44:25;11.63;;;4.40;;
70549;SDS011;58101;48.658;2.328;2023-06-10T04:46:51;8.57;;;3.97;;
70549;SDS011;58101;48.658;2.328;2023-06-10T04:49:17;10.60;;;3.80;;
70549;SDS011;58101;48.658;2.328;2023-06-10T04:51:42;12.20;;;4.50;;
70549;SDS011;58101;48.658;2.328;2023-06-10T04:54:08;10.98;;;4.47;;
70549;SDS011;58101;48.658;2.328;2023-06-10T04:56:33;8.75;;;3.80;;
70549;SDS011;58101;48.658;2.328;2023-06-10T04:58:59;11.35;;;4.07;;
70549;SDS011;58101;48.658;2.328;2023-06-10T05:01:25;8.60;;;3.60;;
70549;SDS011;58101;48.658;2.328;2023-06-10T05:06:36;10.10;;;3.90;;
70549;SDS011;58101;48.658;2.328;2023-06-10T05:09:16;9.43;;;3.67;;
70549;SDS011;58101;48.658;2.328;2023-06-10T05:11:41;8.60;;;3.65;;
70549;SDS011;58101;48.658;2.328;2023-06-10T05:14:07;8.85;;;3.60;;
70549;SDS011;58101;48.658;2.328;2023-06-10T05:16:33;9.95;;;3.70;;
70549;SDS011;58101;48.658;2.328;2023-06-10T05:18:58;9.30;;;3.60;;
70549;SDS011;58101;48.658;2.328;2023-06-10T05:21:24;8.18;;;3.40;;
70549;SDS011;58101;48.658;2.328;2023-06-10T05:23:50;9.68;;;3.50;;
70549;SDS011;58101;48.658;2.328;2023-06-10T05:26:15;8.10;;;3.58;;
70549;SDS011;58101;48.658;2.328;2023-06-10T05:28:44;9.88;;;3.60;;
70549;SDS011;58101;48.658;2.328;2023-06-10T05:31:10;8.88;;;3.75;;
70549;SDS011;58101;48.658;2.328;2023-06-10T05:33:35;8.65;;;3.45;;
70549;SDS011;58101;48.658;2.328;2023-06-10T05:36:03;7.68;;;3.58;;
70549;SDS011;58101;48.658;2.328;2023-06-10T05:38:32;9.73;;;3.42;;
70549;SDS011;58101;48.658;2.328;2023-06-10T05:40:58;8.85;;;3.55;;
70549;SDS011;58101;48.658;2.328;2023-06-10T05:43:24;9.18;;;3.70;;
70549;SDS011;58101;48.658;2.328;2023-06-10T05:45:49;8.85;;;3.53;;
70549;SDS011;58101;48.658;2.328;2023-06-10T05:48:18;8.10;;;3.47;;
70549;SDS011;58101;48.658;2.328;2023-06-10T05:50:45;8.43;;;3.40;;
70549;SDS011;58101;48.658;2.328;2023-06-10T05:53:13;11.23;;;3.67;;
70549;SDS011;58101;48.658;2.328;2023-06-10T05:55:43;8.85;;;3.70;;
70549;SDS011;58101;48.658;2.328;2023-06-10T05:58:19;8.55;;;3.58;;
70549;SDS011;58101;48.658;2.328;2023-06-10T06:00:45;8.07;;;3.30;;
70549;SDS011;58101;48.658;2.328;2023-06-10T06:06:05;10.60;;;3.50;;
70549;SDS011;58101;48.658;2.328;2023-06-10T06:08:30;10.05;;;4.00;;
70549;SDS011;58101;48.658;2.328;2023-06-10T06:10:56;11.65;;;3.75;;
70549;SDS011;58101;48.658;2.328;2023-06-10T06:13:22;8.02;;;3.78;;
70549;SDS011;58101;48.658;2.328;2023-06-10T06:15:48;11.05;;;3.60;;
70549;SDS011;58101;48.658;2.328;2023-06-10T06:18:16;8.75;;;3.83;;
70549;SDS011;58101;48.658;2.328;2023-06-10T06:20:43;8.50;;;3.75;;
70549;SDS011;58101;48.658;2.328;2023-06-10T06:23:09;8.48;;;3.60;;
70549;SDS011;58101;48.658;2.328;2023-06-10T06:25:35;11.45;;;4.43;;
70549;SDS011;58101;48.658;2.328;2023-06-10T06:28:03;10.05;;;3.80;;
70549;SDS011;58101;48.658;2.328;2023-06-10T06:30:34;9.07;;;3.40;;
70549;SDS011;58101;48.658;2.328;2023-06-10T06:33:00;7.70;;;3.42;;
70549;SDS011;58101;48.658;2.328;2023-06-10T06:35:26;10.43;;;4.10;;
70549;SDS011;58101;48.658;2.328;2023-06-10T06:37:51;10.48;;;4.05;;
70549;SDS011;58101;48.658;2.328;2023-06-10T06:40:17;11.07;;;3.85;;
70549;SDS011;58101;48.658;2.328;2023-06-10T06:42:45;9.02;;;3.97;;
70549;SDS011;58101;48.658;2.328;2023-06-10T06:45:11;8.77;;;3.90;;
70549;SDS011;58101;48.658;2.328;2023-06-10T06:47:36;8.18;;;3.85;;
70549;SDS011;58101;48.658;2.328;2023-06-10T06:50:02;10.98;;;3.70;;
70549;SDS011;58101;48.658;2.328;2023-06-10T06:52:28;12.63;;;3.65;;
70549;SDS011;58101;48.658;2.328;2023-06-10T06:54:54;9.00;;;3.60;;
70549;SDS011;58101;48.658;2.328;2023-06-10T06:57:19;10.45;;;3.55;;
70549;SDS011;58101;48.658;2.328;2023-06-10T06:59:45;9.00;;;3.78;;
70549;SDS011;58101;48.658;2.328;2023-06-10T07:02:11;8.82;;;3.70;;
70549;SDS011;58101;48.658;2.328;2023-06-10T07:04:36;10.20;;;4.20;;
70549;SDS011;58101;48.658;2.328;2023-06-10T07:07:04;7.65;;;3.40;;
70549;SDS011;58101;48.658;2.328;2023-06-10T07:09:30;8.27;;;3.58;;
70549;SDS011;58101;48.658;2.328;2023-06-10T07:11:55;9.45;;;3.67;;
70549;SDS011;58101;48.658;2.328;2023-06-10T07:14:21;9.35;;;3.80;;
70549;SDS011;58101;48.658;2.328;2023-06-10T07:16:46;9.55;;;3.55;;
70549;SDS011;58101;48.658;2.328;2023-06-10T07:19:13;8.48;;;3.85;;
70549;SDS011;58101;48.658;2.328;2023-06-10T07:21:39;8.68;;;3.95;;
70549;SDS011;58101;48.658;2.328;2023-06-10T07:24:04;8.48;;;3.65;;
70549;SDS011;58101;48.658;2.328;2023-06-10T07:26:30;10.57;;;3.40;;
70549;SDS011;58101;48.658;2.328;2023-06-10T07:28:56;8.93;;;3.70;;
70549;SDS011;58101;48.658;2.328;2023-06-10T07:31:22;7.82;;;3.33;;
70549;SDS011;58101;48.658;2.328;2023-06-10T07:33:48;8.73;;;3.28;;
70549;SDS011;58101;48.658;2.328;2023-06-10T07:36:14;8.35;;;3.60;;
70549;SDS011;58101;48.658;2.328;2023-06-10T07:38:39;8.45;;;3.90;;
70549;SDS011;58101;48.658;2.328;2023-06-10T07:41:07;7.97;;;3.50;;
70549;SDS011;58101;48.658;2.328;2023-06-10T07:45:58;9.43;;;3.63;;
70549;SDS011;58101;48.658;2.328;2023-06-10T07:48:24;7.90;;;3.85;;
70549;SDS011;58101;48.658;2.328;2023-06-10T07:50:51;8.95;;;3.63;;
70549;SDS011;58101;48.658;2.328;2023-06-10T07:53:17;9.93;;;3.70;;
70549;SDS011;58101;48.658;2.328;2023-06-10T07:55:42;10.15;;;4.05;;
70549;SDS011;58101;48.658;2.328;2023-06-10T07:58:08;9.82;;;3.88;;
70549;SDS011;58101;48.658;2.328;2023-06-10T08:00:34;9.40;;;4.20;;
70549;SDS011;58101;48.658;2.328;2023-06-10T08:02:59;9.60;;;3.85;;
70549;SDS011;58101;48.658;2.328;2023-06-10T08:05:25;11.25;;;3.83;;
70549;SDS011;58101;48.658;2.328;2023-06-10T08:07:51;8.38;;;3.40;;
70549;SDS011;58101;48.658;2.328;2023-06-10T08:10:16;9.45;;;3.60;;
70549;SDS011;58101;48.658;2.328;2023-06-10T08:12:42;7.60;;;3.50;;
70549;SDS011;58101;48.658;2.328;2023-06-10T08:15:08;10.80;;;3.40;;
70549;SDS011;58101;48.658;2.328;2023-06-10T08:20:00;7.18;;;3.10;;
70549;SDS011;58101;48.658;2.328;2023-06-10T08:22:26;9.02;;;3.17;;
70549;SDS011;58101;48.658;2.328;2023-06-10T08:24:51;6.90;;;3.20;;
70549;SDS011;58101;48.658;2.328;2023-06-10T08:29:42;14.25;;;3.65;;
70549;SDS011;58101;48.658;2.328;2023-06-10T08:32:08;8.68;;;3.30;;
70549;SDS011;58101;48.658;2.328;2023-06-10T08:37:02;8.30;;;3.38;;
70549;SDS011;58101;48.658;2.328;2023-06-10T08:39:29;8.52;;;3.08;;
70549;SDS011;58101;48.658;2.328;2023-06-10T08:42:00;7.55;;;2.75;;
70549;SDS011;58101;48.658;2.328;2023-06-10T08:44:35;12.05;;;3.25;;
70549;SDS011;58101;48.658;2.328;2023-06-10T08:47:05;6.43;;;2.80;;
70549;SDS011;58101;48.658;2.328;2023-06-10T08:49:42;7.28;;;2.90;;
70549;SDS011;58101;48.658;2.328;2023-06-10T08:52:15;6.45;;;2.80;;
70549;SDS011;58101;48.658;2.328;2023-06-10T08:54:56;8.43;;;3.00;;
70549;SDS011;58101;48.658;2.328;2023-06-10T08:57:25;6.47;;;2.10;;
70549;SDS011;58101;48.658;2.328;2023-06-10T08:59:52;6.85;;;2.30;;
70549;SDS011;58101;48.658;2.328;2023-06-10T09:02:19;6.53;;;2.30;;
70549;SDS011;58101;48.658;2.328;2023-06-10T09:04:46;7.75;;;2.28;;
70549;SDS011;58101;48.658;2.328;2023-06-10T09:07:13;6.65;;;2.13;;
70549;SDS011;58101;48.658;2.328;2023-06-10T09:09:40;6.15;;;2.00;;
70549;SDS011;58101;48.658;2.328;2023-06-10T09:12:07;6.13;;;2.00;;
70549;SDS011;58101;48.658;2.328;2023-06-10T09:14:33;6.50;;;2.47;;
70549;SDS011;58101;48.658;2.328;2023-06-10T09:16:59;6.75;;;2.20;;
70549;SDS011;58101;48.658;2.328;2023-06-10T09:19:25;6.90;;;2.20;;
70549;SDS011;58101;48.658;2.328;2023-06-10T09:21:52;7.15;;;2.10;;
70549;SDS011;58101;48.658;2.328;2023-06-10T09:24:17;6.35;;;2.00;;
70549;SDS011;58101;48.658;2.328;2023-06-10T09:26:43;5.65;;;2.10;;
70549;SDS011;58101;48.658;2.328;2023-06-10T09:29:10;5.63;;;2.03;;
70549;SDS011;58101;48.658;2.328;2023-06-10T09:31:39;6.70;;;2.00;;
70549;SDS011;58101;48.658;2.328;2023-06-10T09:34:10;7.07;;;3.05;;
70549;SDS011;58101;48.658;2.328;2023-06-10T09:36:37;8.32;;;2.72;;
70549;SDS011;58101;48.658;2.328;2023-06-10T09:39:04;7.97;;;2.20;;
70549;SDS011;58101;48.658;2.328;2023-06-10T09:41:33;6.05;;;2.50;;
70549;SDS011;58101;48.658;2.328;2023-06-10T09:44:00;7.03;;;2.08;;
70549;SDS011;58101;48.658;2.328;2023-06-10T09:46:30;6.60;;;2.20;;
70549;SDS011;58101;48.658;2.328;2023-06-10T09:48:59;6.57;;;1.80;;
70549;SDS011;58101;48.658;2.328;2023-06-10T09:51:25;8.32;;;2.10;;
70549;SDS011;58101;48.658;2.328;2023-06-10T09:53:51;8.57;;;1.80;;
70549;SDS011;58101;48.658;2.328;2023-06-10T09:56:17;6.65;;;1.95;;
70549;SDS011;58101;48.658;2.328;2023-06-10T09:58:44;5.72;;;1.90;;
70549;SDS011;58101;48.658;2.328;2023-06-10T10:01:11;5.97;;;1.83;;
70549;SDS011;58101;48.658;2.328;2023-06-10T10:03:51;6.60;;;2.10;;
70549;SDS011;58101;48.658;2.328;2023-06-10T10:06:18;5.53;;;1.63;;
70549;SDS011;58101;48.658;2.328;2023-06-10T10:08:45;7.47;;;3.20;;
70549;SDS011;58101;48.658;2.328;2023-06-10T10:11:18;6.93;;;2.30;;
70549;SDS011;58101;48.658;2.328;2023-06-10T10:13:47;5.85;;;2.30;;
70549;SDS011;58101;48.658;2.328;2023-06-10T10:16:21;6.32;;;2.28;;
70549;SDS011;58101;48.658;2.328;2023-06-10T10:18:55;8.10;;;3.00;;
70549;SDS011;58101;48.658;2.328;2023-06-10T10:24:50;5.95;;;2.10;;
70549;SDS011;58101;48.658;2.328;2023-06-10T10:27:21;6.65;;;2.03;;
70549;SDS011;58101;48.658;2.328;2023-06-10T10:29:52;5.53;;;1.92;;
70549;SDS011;58101;48.658;2.328;2023-06-10T10:32:26;5.50;;;1.90;;
70549;SDS011;58101;48.658;2.328;2023-06-10T10:37:29;6.95;;;2.10;;
70549;SDS011;58101;48.658;2.328;2023-06-10T10:39:56;6.88;;;2.08;;
70549;SDS011;58101;48.658;2.328;2023-06-10T10:42:23;6.35;;;2.15;;
70549;SDS011;58101;48.658;2.328;2023-06-10T10:44:49;5.90;;;2.20;;
70549;SDS011;58101;48.658;2.328;2023-06-10T10:47:16;6.50;;;2.15;;
70549;SDS011;58101;48.658;2.328;2023-06-10T10:49:52;6.15;;;2.22;;
70549;SDS011;58101;48.658;2.328;2023-06-10T10:52:18;6.03;;;2.30;;
70549;SDS011;58101;48.658;2.328;2023-06-10T10:54:45;5.90;;;2.28;;
70549;SDS011;58101;48.658;2.328;2023-06-10T10:57:15;6.93;;;2.22;;
70549;SDS011;58101;48.658;2.328;2023-06-10T11:02:56;5.93;;;2.42;;
70549;SDS011;58101;48.658;2.328;2023-06-10T11:05:08;6.75;;;2.30;;
70549;SDS011;58101;48.658;2.328;2023-06-10T11:07:35;6.20;;;2.33;;
70549;SDS011;58101;48.658;2.328;2023-06-10T11:10:11;9.13;;;3.50;;
70549;SDS011;58101;48.658;2.328;2023-06-10T11:12:50;6.15;;;2.45;;
70549;SDS011;58101;48.658;2.328;2023-06-10T11:15:27;5.90;;;2.15;;
70549;SDS011;58101;48.658;2.328;2023-06-10T11:18:10;7.10;;;2.67;;
70549;SDS011;58101;48.658;2.328;2023-06-10T11:31:19;6.85;;;2.55;;
70549;SDS011;58101;48.658;2.328;2023-06-10T11:33:46;7.68;;;2.38;;
70549;SDS011;58101;48.658;2.328;2023-06-10T11:36:13;6.78;;;2.30;;
70549;SDS011;58101;48.658;2.328;2023-06-10T11:38:40;5.75;;;2.30;;
70549;SDS011;58101;48.658;2.328;2023-06-10T11:41:06;6.82;;;2.50;;
70549;SDS011;58101;48.658;2.328;2023-06-10T11:43:32;5.80;;;2.22;;
70549;SDS011;58101;48.658;2.328;2023-06-10T11:45:59;6.03;;;2.60;;
70549;SDS011;58101;48.658;2.328;2023-06-10T11:48:25;6.50;;;2.60;;
70549;SDS011;58101;48.658;2.328;2023-06-10T11:50:53;6.78;;;2.60;;
70549;SDS011;58101;48.658;2.328;2023-06-10T11:53:19;6.47;;;2.65;;
70549;SDS011;58101;48.658;2.328;2023-06-10T11:58:18;6.53;;;2.60;;
70549;SDS011;58101;48.658;2.328;2023-06-10T12:00:48;6.40;;;2.60;;
70549;SDS011;58101;48.658;2.328;2023-06-10T12:03:16;7.55;;;2.60;;
70549;SDS011;58101;48.658;2.328;2023-06-10T12:05:57;7.97;;;2.72;;
70549;SDS011;58101;48.658;2.328;2023-06-10T12:08:30;6.53;;;2.40;;
70549;SDS011;58101;48.658;2.328;2023-06-10T12:10:56;6.80;;;2.35;;
70549;SDS011;58101;48.658;2.328;2023-06-10T12:13:23;8.13;;;2.47;;
70549;SDS011;58101;48.658;2.328;2023-06-10T12:15:51;6.15;;;2.60;;
70549;SDS011;58101;48.658;2.328;2023-06-10T12:18:17;5.70;;;2.50;;
70549;SDS011;58101;48.658;2.328;2023-06-10T12:20:49;6.03;;;2.50;;
70549;SDS011;58101;48.658;2.328;2023-06-10T12:23:18;6.32;;;2.60;;
70549;SDS011;58101;48.658;2.328;2023-06-10T12:25:51;6.90;;;2.60;;
70549;SDS011;58101;48.658;2.328;2023-06-10T12:28:21;6.07;;;2.67;;
70549;SDS011;58101;48.658;2.328;2023-06-10T12:30:48;5.85;;;2.33;;
70549;SDS011;58101;48.658;2.328;2023-06-10T12:33:16;5.93;;;2.42;;
70549;SDS011;58101;48.658;2.328;2023-06-10T12:35:46;6.07;;;2.70;;
70549;SDS011;58101;48.658;2.328;2023-06-10T12:38:25;5.57;;;2.40;;
70549;SDS011;58101;48.658;2.328;2023-06-10T12:40:54;6.95;;;2.60;;
70549;SDS011;58101;48.658;2.328;2023-06-10T12:43:26;6.57;;;2.63;;
70549;SDS011;58101;48.658;2.328;2023-06-10T12:45:51;6.07;;;2.80;;
70549;SDS011;58101;48.658;2.328;2023-06-10T12:48:21;6.25;;;2.80;;
70549;SDS011;58101;48.658;2.328;2023-06-10T12:50:52;6.88;;;2.70;;
70549;SDS011;58101;48.658;2.328;2023-06-10T12:53:19;6.03;;;2.60;;
70549;SDS011;58101;48.658;2.328;2023-06-10T12:55:46;5.80;;;2.55;;
70549;SDS011;58101;48.658;2.328;2023-06-10T12:58:12;7.13;;;2.83;;
70549;SDS011;58101;48.658;2.328;2023-06-10T13:00:38;6.53;;;2.40;;
70549;SDS011;58101;48.658;2.328;2023-06-10T13:03:05;6.85;;;2.70;;
70549;SDS011;58101;48.658;2.328;2023-06-10T13:05:32;5.95;;;2.47;;
70549;SDS011;58101;48.658;2.328;2023-06-10T13:07:58;6.32;;;2.90;;
70549;SDS011;58101;48.658;2.328;2023-06-10T13:10:24;6.97;;;2.58;;
70549;SDS011;58101;48.658;2.328;2023-06-10T13:12:50;9.75;;;2.88;;
70549;SDS011;58101;48.658;2.328;2023-06-10T13:15:16;7.30;;;2.80;;
70549;SDS011;58101;48.658;2.328;2023-06-10T13:17:43;6.43;;;2.47;;
70549;SDS011;58101;48.658;2.328;2023-06-10T13:20:09;5.80;;;2.60;;
70549;SDS011;58101;48.658;2.328;2023-06-10T13:22:35;6.70;;;2.65;;
70549;SDS011;58101;48.658;2.328;2023-06-10T13:25:02;5.97;;;2.63;;
70549;SDS011;58101;48.658;2.328;2023-06-10T13:27:34;7.63;;;2.72;;
70549;SDS011;58101;48.658;2.328;2023-06-10T13:30:03;7.07;;;2.55;;
70549;SDS011;58101;48.658;2.328;2023-06-10T13:32:29;6.45;;;2.78;;
70549;SDS011;58101;48.658;2.328;2023-06-10T13:34:54;7.18;;;2.50;;
70549;SDS011;58101;48.658;2.328;2023-06-10T13:37:22;5.82;;;2.60;;
70549;SDS011;58101;48.658;2.328;2023-06-10T13:39:47;5.97;;;2.53;;
70549;SDS011;58101;48.658;2.328;2023-06-10T13:42:15;7.22;;;2.80;;
70549;SDS011;58101;48.658;2.328;2023-06-10T13:44:45;6.22;;;2.70;;
70549;SDS011;58101;48.658;2.328;2023-06-10T13:47:14;7.03;;;2.42;;
70549;SDS011;58101;48.658;2.328;2023-06-10T13:49:40;5.90;;;2.55;;
70549;SDS011;58101;48.658;2.328;2023-06-10T13:52:06;6.05;;;2.75;;
70549;SDS011;58101;48.658;2.328;2023-06-10T13:54:33;6.68;;;2.78;;
70549;SDS011;58101;48.658;2.328;2023-06-10T13:57:01;6.38;;;2.80;;
70549;SDS011;58101;48.658;2.328;2023-06-10T13:59:26;6.55;;;3.10;;
70549;SDS011;58101;48.658;2.328;2023-06-10T14:01:52;6.82;;;2.63;;
70549;SDS011;58101;48.658;2.328;2023-06-10T14:04:18;5.88;;;2.45;;
70549;SDS011;58101;48.658;2.328;2023-06-10T14:06:43;6.63;;;2.85;;
70549;SDS011;58101;48.658;2.328;2023-06-10T14:09:09;5.82;;;2.40;;
70549;SDS011;58101;48.658;2.328;2023-06-10T14:11:35;6.07;;;2.63;;
70549;SDS011;58101;48.658;2.328;2023-06-10T14:14:01;6.28;;;2.63;;
70549;SDS011;58101;48.658;2.328;2023-06-10T14:16:28;7.50;;;3.17;;
70549;SDS011;58101;48.658;2.328;2023-06-10T14:18:54;7.90;;;3.40;;
70549;SDS011;58101;48.658;2.328;2023-06-10T14:21:20;6.85;;;3.00;;
70549;SDS011;58101;48.658;2.328;2023-06-10T14:23:46;6.95;;;2.28;;
70549;SDS011;58101;48.658;2.328;2023-06-10T14:26:14;6.13;;;2.50;;
70549;SDS011;58101;48.658;2.328;2023-06-10T14:28:39;6.05;;;2.50;;
70549;SDS011;58101;48.658;2.328;2023-06-10T14:31:05;5.80;;;2.40;;
70549;SDS011;58101;48.658;2.328;2023-06-10T14:33:35;5.97;;;2.72;;
70549;SDS011;58101;48.658;2.328;2023-06-10T14:36:07;5.80;;;2.60;;
70549;SDS011;58101;48.658;2.328;2023-06-10T14:38:41;6.72;;;2.55;;
70549;SDS011;58101;48.658;2.328;2023-06-10T14:44:04;5.63;;;2.67;;
70549;SDS011;58101;48.658;2.328;2023-06-10T14:46:38;9.25;;;3.10;;
70549;SDS011;58101;48.658;2.328;2023-06-10T14:49:04;5.78;;;2.65;;
70549;SDS011;58101;48.658;2.328;2023-06-10T14:51:30;7.15;;;2.78;;
70549;SDS011;58101;48.658;2.328;2023-06-10T14:53:55;6.63;;;2.78;;
70549;SDS011;58101;48.658;2.328;2023-06-10T14:56:21;7.25;;;2.88;;
70549;SDS011;58101;48.658;2.328;2023-06-10T14:58:59;7.03;;;2.90;;
70549;SDS011;58101;48.658;2.328;2023-06-10T15:01:25;6.55;;;3.13;;
70549;SDS011;58101;48.658;2.328;2023-06-10T15:03:50;6.47;;;2.70;;
70549;SDS011;58101;48.658;2.328;2023-06-10T15:06:16;7.07;;;2.80;;
70549;SDS011;58101;48.658;2.328;2023-06-10T15:08:45;7.15;;;2.80;;
70549;SDS011;58101;48.658;2.328;2023-06-10T15:11:13;6.05;;;2.47;;
70549;SDS011;58101;48.658;2.328;2023-06-10T15:13:45;5.88;;;2.70;;
70549;SDS011;58101;48.658;2.328;2023-06-10T15:16:11;6.25;;;2.60;;
70549;SDS011;58101;48.658;2.328;2023-06-10T15:18:37;6.28;;;2.65;;
70549;SDS011;58101;48.658;2.328;2023-06-10T15:21:03;5.85;;;2.60;;
70549;SDS011;58101;48.658;2.328;2023-06-10T15:23:28;5.90;;;2.80;;
70549;SDS011;58101;48.658;2.328;2023-06-10T15:25:54;5.90;;;2.65;;
70549;SDS011;58101;48.658;2.328;2023-06-10T15:28:22;6.28;;;2.60;;
70549;SDS011;58101;48.658;2.328;2023-06-10T15:30:48;6.53;;;2.60;;
70549;SDS011;58101;48.658;2.328;2023-06-10T15:33:14;5.55;;;2.50;;
70549;SDS011;58101;48.658;2.328;2023-06-10T15:35:43;5.70;;;2.60;;
70549;SDS011;58101;48.658;2.328;2023-06-10T15:38:11;6.40;;;2.60;;
70549;SDS011;58101;48.658;2.328;2023-06-10T15:40:43;6.75;;;2.60;;
70549;SDS011;58101;48.658;2.328;2023-06-10T15:43:11;5.63;;;2.60;;
70549;SDS011;58101;48.658;2.328;2023-06-10T15:45:38;6.53;;;2.65;;
70549;SDS011;58101;48.658;2.328;2023-06-10T15:48:04;6.35;;;2.40;;